createdAt,value
2022-10-12T00:04:59.018Z,14.65
2022-10-12T00:10:00.418Z,14.68
2022-10-12T00:15:01.806Z,14.72
2022-10-12T00:20:04.434Z,14.70
2022-10-12T00:25:06.491Z,14.76
2022-10-12T00:30:08.548Z,14.76
2022-10-12T00:35:10.004Z,14.75
2022-10-12T00:40:11.882Z,14.78
2022-10-12T00:45:13.274Z,14.73
2022-10-12T00:50:18.016Z,14.75
2022-10-12T00:55:23.262Z,14.77
2022-10-12T01:00:25.055Z,14.73
2022-10-12T01:05:26.918Z,14.69
2022-10-12T01:10:28.665Z,14.68
2022-10-12T01:15:42.416Z,14.68
2022-10-12T01:21:10.194Z,14.77
2022-10-12T01:26:17.599Z,14.75
2022-10-12T01:31:57.562Z,14.76
2022-10-12T01:37:10.593Z,14.74
2022-10-12T01:42:19.014Z,14.75
2022-10-12T01:47:20.628Z,14.68
2022-10-12T01:52:28.190Z,14.69
2022-10-12T01:57:43.786Z,14.68
2022-10-12T02:03:10.529Z,14.70
2022-10-12T02:08:41.671Z,14.68
2022-10-12T02:13:52.583Z,14.70
2022-10-12T02:18:57.499Z,14.73
2022-10-12T02:24:05.165Z,14.72
2022-10-12T02:29:13.242Z,14.70
2022-10-12T02:34:32.369Z,14.70
2022-10-12T02:39:42.393Z,14.67
2022-10-12T02:44:45.017Z,14.56
2022-10-12T02:49:47.345Z,14.54
2022-10-12T02:54:48.769Z,14.50
2022-10-12T02:59:50.199Z,14.50
2022-10-12T03:04:51.627Z,14.48
2022-10-12T03:09:53.037Z,14.46
2022-10-12T03:14:54.426Z,14.63
2022-10-12T03:19:55.830Z,14.98
2022-10-12T03:24:57.217Z,14.54
2022-10-12T03:29:58.594Z,14.65
2022-10-12T03:34:59.992Z,14.43
2022-10-12T03:40:01.833Z,14.35
2022-10-12T03:45:03.603Z,14.47
2022-10-12T03:50:05.810Z,14.59
2022-10-12T03:55:07.528Z,14.42
2022-10-12T04:00:09.696Z,14.46
2022-10-12T04:05:14.119Z,14.43
2022-10-12T04:10:15.611Z,14.37
2022-10-12T04:15:17.133Z,14.32
2022-10-12T04:20:18.711Z,14.35
2022-10-12T04:25:20.128Z,14.37
2022-10-12T04:30:21.531Z,14.34
2022-10-12T04:35:22.951Z,14.34
2022-10-12T04:40:24.498Z,14.64
2022-10-12T04:45:25.888Z,14.95
2022-10-12T04:50:29.998Z,14.59
2022-10-12T04:55:31.707Z,14.76
2022-10-12T05:00:33.105Z,14.78
2022-10-12T05:05:34.534Z,14.90
2022-10-12T05:10:35.943Z,14.89
2022-10-12T05:15:37.326Z,14.86
2022-10-12T05:20:38.716Z,14.90
2022-10-12T05:25:40.169Z,14.93
2022-10-12T05:30:41.604Z,15.00
2022-10-12T05:35:47.479Z,14.98
2022-10-12T05:40:50.288Z,14.63
2022-10-12T05:45:51.675Z,14.35
2022-10-12T05:50:54.248Z,14.69
2022-10-12T05:55:57.734Z,14.92
2022-10-12T06:01:10.931Z,14.83
2022-10-12T06:06:12.313Z,14.85
2022-10-12T06:11:13.854Z,14.92
2022-10-12T06:16:15.261Z,15.05
2022-10-12T06:26:38.004Z,15.13
2022-10-12T06:31:39.460Z,15.23
2022-10-12T06:36:40.963Z,15.27
2022-10-12T06:41:42.367Z,15.32
2022-10-12T06:46:43.746Z,15.36
2022-10-12T06:51:45.214Z,15.21
2022-10-12T06:56:46.599Z,15.30
2022-10-12T07:01:49.029Z,15.26
2022-10-12T07:06:50.429Z,15.14
2022-10-12T07:11:51.854Z,15.02
2022-10-12T07:16:55.460Z,15.18
2022-10-12T07:21:57.062Z,15.32
2022-10-12T07:26:58.442Z,15.42
2022-10-12T07:32:00.081Z,15.02
2022-10-12T07:37:01.785Z,15.17
2022-10-12T07:42:03.487Z,15.19
2022-10-12T07:47:04.960Z,15.29
2022-10-12T07:52:06.376Z,15.27
2022-10-12T07:57:07.787Z,15.30
2022-10-12T08:02:11.703Z,15.45
2022-10-12T08:07:13.306Z,15.53
2022-10-12T08:12:14.743Z,15.58
2022-10-12T08:17:16.149Z,15.65
2022-10-12T08:22:17.550Z,15.70
2022-10-12T08:27:18.958Z,15.77
2022-10-12T08:32:20.341Z,15.79
2022-10-12T08:37:21.716Z,15.93
2022-10-12T08:42:29.058Z,15.88
2022-10-12T08:47:41.971Z,15.74
2022-10-12T08:52:52.027Z,15.76
2022-10-12T08:57:54.671Z,15.90
2022-10-12T09:03:20.547Z,15.98
2022-10-12T09:08:42.170Z,15.85
2022-10-12T09:14:02.772Z,15.79
2022-10-12T09:19:18.362Z,15.96
2022-10-12T09:24:25.247Z,16.02
2022-10-12T09:29:30.062Z,16.07
2022-10-12T09:34:32.722Z,16.16
2022-10-12T09:39:36.678Z,16.22
2022-10-12T09:45:24.154Z,16.10
2022-10-12T09:50:40.341Z,16.05
2022-10-12T09:55:52.909Z,16.06
2022-10-12T10:01:22.253Z,16.01
2022-10-12T10:06:25.018Z,16.10
2022-10-12T10:11:28.882Z,16.16
2022-10-12T10:16:30.547Z,16.07
2022-10-12T10:21:34.998Z,16.01
2022-10-12T10:26:54.892Z,16.03
2022-10-12T10:32:19.859Z,16.03
2022-10-12T10:37:23.036Z,16.00
2022-10-12T10:42:30.542Z,15.90
2022-10-12T10:47:33.923Z,15.95
2022-10-12T10:52:37.057Z,16.15
2022-10-12T10:57:44.262Z,16.24
2022-10-12T11:02:50.848Z,16.23
2022-10-12T11:08:02.451Z,16.20
2022-10-12T11:13:14.748Z,16.29
2022-10-12T11:18:30.566Z,16.30
2022-10-12T11:23:42.242Z,16.32
2022-10-12T11:28:44.215Z,16.41
2022-10-12T11:33:47.069Z,16.57
2022-10-12T11:38:54.461Z,16.60
2022-10-12T11:44:07.315Z,16.67
2022-10-12T11:49:26.146Z,16.78
2022-10-12T11:54:35.259Z,16.90
2022-10-12T11:59:52.968Z,16.97
2022-10-12T12:04:55.008Z,16.99
2022-10-12T12:09:56.735Z,16.79
2022-10-12T12:15:05.918Z,16.82
2022-10-12T12:20:44.065Z,16.80
2022-10-12T12:25:45.635Z,17.02
2022-10-12T12:31:02.577Z,17.08
2022-10-12T12:36:07.669Z,17.11
2022-10-12T12:41:18.154Z,17.12
2022-10-12T12:46:20.753Z,17.16
2022-10-12T12:51:36.744Z,17.21
2022-10-12T12:56:50.585Z,17.16
2022-10-12T13:02:29.306Z,17.12
2022-10-12T13:07:51.688Z,17.03
2022-10-12T13:12:59.174Z,16.99
2022-10-12T13:18:42.212Z,17.09
2022-10-12T13:23:41.209Z,17.12
2022-10-12T13:28:43.316Z,17.06
2022-10-12T13:33:49.355Z,16.95
2022-10-12T13:38:59.234Z,17.05
2022-10-12T13:44:04.029Z,17.14
2022-10-12T13:49:26.341Z,17.20
2022-10-12T13:54:35.395Z,17.05
2022-10-12T13:59:38.776Z,17.00
2022-10-12T14:04:42.831Z,17.00
2022-10-12T14:09:47.468Z,16.99
2022-10-12T14:14:49.763Z,17.03
2022-10-12T14:19:53.660Z,16.96
2022-10-12T14:25:14.772Z,16.89
2022-10-12T14:30:18.368Z,16.92
2022-10-12T14:35:26.527Z,16.88
2022-10-12T14:40:36.622Z,16.85
2022-10-12T14:45:38.217Z,16.85
2022-10-12T14:50:39.638Z,16.83
2022-10-12T14:55:41.997Z,16.77
2022-10-12T15:00:43.875Z,16.65
2022-10-12T15:05:45.302Z,16.69
2022-10-12T15:10:50.556Z,16.55
2022-10-12T15:15:53.552Z,16.61
2022-10-12T15:20:55.422Z,16.47
2022-10-12T15:25:56.825Z,16.43
2022-10-12T15:36:21.614Z,16.37
2022-10-12T15:41:25.697Z,16.33
2022-10-12T15:46:27.161Z,16.30
2022-10-12T15:51:28.699Z,16.24
2022-10-12T15:56:30.087Z,16.20
2022-10-12T16:01:33.675Z,16.11
2022-10-12T16:06:35.051Z,16.06
2022-10-12T16:11:36.432Z,16.03
2022-10-12T16:16:37.863Z,16.13
2022-10-12T16:21:39.279Z,16.19
2022-10-12T16:26:44.858Z,16.07
2022-10-12T16:31:46.571Z,16.12
2022-10-12T16:36:47.975Z,16.04
2022-10-12T16:41:49.387Z,16.08
2022-10-12T16:46:50.873Z,15.95
2022-10-12T16:51:52.287Z,15.96
2022-10-12T16:56:53.714Z,16.01
2022-10-12T17:01:55.131Z,16.03
2022-10-12T17:06:56.552Z,15.92
2022-10-12T17:11:57.975Z,15.77
2022-10-12T17:16:59.476Z,15.87
2022-10-12T17:22:02.428Z,15.72
2022-10-12T17:27:05.820Z,15.72
2022-10-12T17:32:09.233Z,15.36
2022-10-12T17:37:15.161Z,15.31
2022-10-12T17:42:16.925Z,15.42
2022-10-12T17:47:18.720Z,15.47
2022-10-12T17:52:20.398Z,15.53
2022-10-12T17:57:21.856Z,15.52
2022-10-12T18:02:23.290Z,15.41
2022-10-12T18:07:24.748Z,15.47
2022-10-12T18:12:26.130Z,15.44
2022-10-12T18:17:27.530Z,15.44
2022-10-12T18:22:29.386Z,15.41
2022-10-12T18:27:30.808Z,15.39
2022-10-12T18:32:32.235Z,15.44
2022-10-12T18:37:33.647Z,15.36
2022-10-12T18:42:35.060Z,15.35
2022-10-12T18:47:37.324Z,15.45
2022-10-12T18:52:38.749Z,15.45
2022-10-12T18:57:40.318Z,15.44
2022-10-12T19:02:41.763Z,15.48
2022-10-12T19:07:43.190Z,15.41
2022-10-12T19:12:45.845Z,15.30
2022-10-12T19:17:47.371Z,15.09
2022-10-12T19:22:48.824Z,15.01
2022-10-12T19:27:50.295Z,15.07
2022-10-12T19:32:51.815Z,15.03
2022-10-12T19:37:53.213Z,14.96
2022-10-12T19:42:54.598Z,14.97
2022-10-12T19:47:56.070Z,15.11
2022-10-12T19:52:57.528Z,15.17
2022-10-12T19:57:58.989Z,15.33
2022-10-12T20:03:00.510Z,15.08
2022-10-12T20:08:01.925Z,15.08
2022-10-12T20:13:03.437Z,15.18
2022-10-12T20:18:04.980Z,15.21
2022-10-12T20:23:06.417Z,15.15
2022-10-12T20:28:08.422Z,15.17
2022-10-12T20:33:10.097Z,15.24
2022-10-12T20:38:11.525Z,15.22
2022-10-12T20:43:14.465Z,15.26
2022-10-12T20:48:15.865Z,15.25
2022-10-12T20:53:17.274Z,15.35
2022-10-12T20:58:18.684Z,15.34
2022-10-12T21:03:20.088Z,15.20
2022-10-12T21:08:21.496Z,15.01
2022-10-12T21:13:22.973Z,15.00
2022-10-12T21:18:24.845Z,15.06
2022-10-12T21:23:27.294Z,15.06
2022-10-12T21:28:28.700Z,15.03
2022-10-12T21:33:30.201Z,15.06
2022-10-12T21:38:31.617Z,15.10
2022-10-12T21:43:33.427Z,14.98
2022-10-12T21:48:35.396Z,14.95
2022-10-12T21:53:38.092Z,14.79
2022-10-12T21:58:39.600Z,14.89
2022-10-12T22:03:42.459Z,14.93
2022-10-12T22:08:44.946Z,14.97
2022-10-12T22:13:52.989Z,14.92
2022-10-12T22:18:56.780Z,14.96
2022-10-12T22:24:01.927Z,14.87
2022-10-12T22:29:05.036Z,14.88
2022-10-12T22:34:06.842Z,14.91
2022-10-12T22:39:10.694Z,14.84
2022-10-12T22:44:12.072Z,14.88
2022-10-12T22:49:13.493Z,14.96
2022-10-12T22:54:14.883Z,14.94
2022-10-12T22:59:16.314Z,14.92
2022-10-12T23:04:17.719Z,14.98
2022-10-12T23:09:19.168Z,15.01
2022-10-12T23:14:20.559Z,14.98
2022-10-12T23:19:21.962Z,14.83
2022-10-12T23:24:23.380Z,14.79
2022-10-12T23:29:24.784Z,14.70
2022-10-12T23:34:26.292Z,14.66
2022-10-12T23:39:27.712Z,14.55
2022-10-12T23:44:29.116Z,14.40
2022-10-12T23:49:30.531Z,14.29
2022-10-12T23:54:35.720Z,14.16
2022-10-12T23:59:37.131Z,14.08
